sensor_id;sensor_type;location;lat;lon;timestamp;pressure;altitude;pressure_sealevel;temperature;humidity
5283;BME280;15376;48.540;9.268;2023-01-08T00:00:39;97048.97;;;0.82;100.00
5283;BME280;15376;48.540;9.268;2023-01-08T00:03:05;97047.75;;;0.86;100.00
5283;BME280;15376;48.540;9.268;2023-01-08T00:05:30;97047.91;;;0.94;100.00
5283;BME280;15376;48.540;9.268;2023-01-08T00:07:55;97035.66;;;0.85;100.00
5283;BME280;15376;48.540;9.268;2023-01-08T00:10:21;97029.63;;;0.94;100.00
5283;BME280;15376;48.540;9.268;2023-01-08T00:12:46;97021.09;;;0.92;100.00
5283;BME280;15376;48.540;9.268;2023-01-08T00:15:11;97023.44;;;0.95;100.00
5283;BME280;15376;48.540;9.268;2023-01-08T00:17:37;97006.06;;;0.85;100.00
5283;BME280;15376;48.540;9.268;2023-01-08T00:20:02;97012.19;;;1.05;100.00
5283;BME280;15376;48.540;9.268;2023-01-08T00:22:28;97003.09;;;1.09;100.00
5283;BME280;15376;48.540;9.268;2023-01-08T00:24:53;97006.13;;;1.14;100.00
5283;BME280;15376;48.540;9.268;2023-01-08T00:27:18;97012.31;;;1.13;100.00
5283;BME280;15376;48.540;9.268;2023-01-08T00:29:44;96993.31;;;1.20;100.00
5283;BME280;15376;48.540;9.268;2023-01-08T00:32:09;97002.00;;;1.30;100.00
5283;BME280;15376;48.540;9.268;2023-01-08T00:34:34;96980.41;;;1.19;100.00
5283;BME280;15376;48.540;9.268;2023-01-08T00:37:00;96948.06;;;1.10;100.00
5283;BME280;15376;48.540;9.268;2023-01-08T00:39:25;96979.56;;;1.28;100.00
5283;BME280;15376;48.540;9.268;2023-01-08T00:41:50;96969.25;;;1.17;100.00
5283;BME280;15376;48.540;9.268;2023-01-08T00:44:16;96946.56;;;1.17;100.00
5283;BME280;15376;48.540;9.268;2023-01-08T00:46:41;96968.53;;;1.24;100.00
5283;BME280;15376;48.540;9.268;2023-01-08T00:49:06;96961.81;;;1.22;100.00
5283;BME280;15376;48.540;9.268;2023-01-08T00:51:32;96963.72;;;1.29;100.00
5283;BME280;15376;48.540;9.268;2023-01-08T00:53:57;96959.19;;;1.31;100.00
5283;BME280;15376;48.540;9.268;2023-01-08T00:56:22;96953.53;;;1.26;100.00
5283;BME280;15376;48.540;9.268;2023-01-08T00:58:48;96963.06;;;1.18;100.00
5283;BME280;15376;48.540;9.268;2023-01-08T01:01:14;96950.53;;;1.12;100.00
5283;BME280;15376;48.540;9.268;2023-01-08T01:03:40;96931.53;;;1.10;100.00
5283;BME280;15376;48.540;9.268;2023-01-08T01:06:06;96949.28;;;1.35;100.00
5283;BME280;15376;48.540;9.268;2023-01-08T01:08:32;96945.56;;;1.47;100.00
5283;BME280;15376;48.540;9.268;2023-01-08T01:10:58;96931.66;;;1.37;100.00
5283;BME280;15376;48.540;9.268;2023-01-08T01:13:23;96933.88;;;1.32;100.00
5283;BME280;15376;48.540;9.268;2023-01-08T01:15:56;96940.75;;;1.23;100.00
5283;BME280;15376;48.540;9.268;2023-01-08T01:18:22;96929.03;;;1.27;100.00
5283;BME280;15376;48.540;9.268;2023-01-08T01:20:47;96921.19;;;1.47;100.00
5283;BME280;15376;48.540;9.268;2023-01-08T01:23:12;96923.06;;;1.64;100.00
5283;BME280;15376;48.540;9.268;2023-01-08T01:25:38;96924.84;;;1.63;100.00
5283;BME280;15376;48.540;9.268;2023-01-08T01:28:03;96927.09;;;1.58;100.00
5283;BME280;15376;48.540;9.268;2023-01-08T01:30:29;96947.03;;;1.69;100.00
5283;BME280;15376;48.540;9.268;2023-01-08T01:32:57;96947.69;;;1.81;100.00
5283;BME280;15376;48.540;9.268;2023-01-08T01:35:22;96931.88;;;1.73;100.00
5283;BME280;15376;48.540;9.268;2023-01-08T01:37:47;96939.50;;;1.56;100.00
5283;BME280;15376;48.540;9.268;2023-01-08T01:40:13;96949.97;;;1.56;100.00
5283;BME280;15376;48.540;9.268;2023-01-08T01:42:38;96966.22;;;1.50;100.00
5283;BME280;15376;48.540;9.268;2023-01-08T01:45:25;96969.94;;;1.57;100.00
5283;BME280;15376;48.540;9.268;2023-01-08T01:47:58;96948.16;;;1.47;100.00
5283;BME280;15376;48.540;9.268;2023-01-08T01:50:26;96960.28;;;1.48;100.00
5283;BME280;15376;48.540;9.268;2023-01-08T01:53:07;96958.38;;;1.50;100.00
5283;BME280;15376;48.540;9.268;2023-01-08T01:55:38;96955.75;;;1.41;100.00
5283;BME280;15376;48.540;9.268;2023-01-08T01:58:12;96949.69;;;1.50;100.00
5283;BME280;15376;48.540;9.268;2023-01-08T02:00:38;96946.06;;;1.60;100.00
5283;BME280;15376;48.540;9.268;2023-01-08T02:03:04;96932.03;;;1.61;100.00
5283;BME280;15376;48.540;9.268;2023-01-08T02:11:19;96936.97;;;1.64;100.00
5283;BME280;15376;48.540;9.268;2023-01-08T02:13:54;96942.47;;;1.61;100.00
5283;BME280;15376;48.540;9.268;2023-01-08T02:16:49;96933.38;;;1.65;100.00
5283;BME280;15376;48.540;9.268;2023-01-08T02:19:23;96928.28;;;1.64;100.00
5283;BME280;15376;48.540;9.268;2023-01-08T02:24:54;96932.00;;;1.71;100.00
5283;BME280;15376;48.540;9.268;2023-01-08T02:27:23;96914.09;;;1.76;100.00
5283;BME280;15376;48.540;9.268;2023-01-08T02:29:50;96912.69;;;1.82;100.00
5283;BME280;15376;48.540;9.268;2023-01-08T02:32:17;96906.59;;;1.91;100.00
5283;BME280;15376;48.540;9.268;2023-01-08T02:34:42;96891.75;;;1.82;100.00
5283;BME280;15376;48.540;9.268;2023-01-08T02:37:08;96893.22;;;1.94;100.00
5283;BME280;15376;48.540;9.268;2023-01-08T02:40:51;96879.94;;;2.05;100.00
5283;BME280;15376;48.540;9.268;2023-01-08T02:42:54;96882.56;;;2.05;100.00
5283;BME280;15376;48.540;9.268;2023-01-08T02:48:22;96870.13;;;2.07;100.00
5283;BME280;15376;48.540;9.268;2023-01-08T02:50:55;96860.88;;;2.13;100.00
5283;BME280;15376;48.540;9.268;2023-01-08T02:53:27;96847.25;;;2.09;100.00
5283;BME280;15376;48.540;9.268;2023-01-08T02:55:56;96849.69;;;1.93;100.00
5283;BME280;15376;48.540;9.268;2023-01-08T02:58:25;96838.53;;;1.91;100.00
5283;BME280;15376;48.540;9.268;2023-01-08T03:00:52;96846.50;;;1.99;100.00
5283;BME280;15376;48.540;9.268;2023-01-08T03:03:21;96834.06;;;2.01;100.00
5283;BME280;15376;48.540;9.268;2023-01-08T03:05:59;96827.94;;;2.10;100.00
5283;BME280;15376;48.540;9.268;2023-01-08T03:08:26;96829.69;;;2.19;100.00
5283;BME280;15376;48.540;9.268;2023-01-08T03:10:59;96825.91;;;2.31;100.00
5283;BME280;15376;48.540;9.268;2023-01-08T03:13:36;96838.47;;;2.46;100.00
5283;BME280;15376;48.540;9.268;2023-01-08T03:16:08;96832.94;;;2.49;100.00
5283;BME280;15376;48.540;9.268;2023-01-08T03:18:40;96824.94;;;2.50;100.00
5283;BME280;15376;48.540;9.268;2023-01-08T03:21:08;96825.31;;;2.55;100.00
5283;BME280;15376;48.540;9.268;2023-01-08T03:23:35;96825.25;;;2.65;100.00
5283;BME280;15376;48.540;9.268;2023-01-08T03:26:04;96829.22;;;2.69;100.00
5283;BME280;15376;48.540;9.268;2023-01-08T03:28:34;96808.84;;;2.63;100.00
5283;BME280;15376;48.540;9.268;2023-01-08T03:31:01;96829.63;;;2.82;100.00
5283;BME280;15376;48.540;9.268;2023-01-08T03:33:28;96809.28;;;2.76;100.00
5283;BME280;15376;48.540;9.268;2023-01-08T03:35:56;96797.31;;;2.56;100.00
5283;BME280;15376;48.540;9.268;2023-01-08T03:38:31;96805.84;;;2.58;100.00
5283;BME280;15376;48.540;9.268;2023-01-08T03:41:04;96800.75;;;2.56;100.00
5283;BME280;15376;48.540;9.268;2023-01-08T03:43:31;96782.13;;;2.59;100.00
5283;BME280;15376;48.540;9.268;2023-01-08T03:46:00;96808.31;;;2.77;100.00
5283;BME280;15376;48.540;9.268;2023-01-08T03:48:27;96801.66;;;2.65;100.00
5283;BME280;15376;48.540;9.268;2023-01-08T03:50:53;96794.09;;;2.62;100.00
5283;BME280;15376;48.540;9.268;2023-01-08T03:53:19;96792.66;;;2.67;100.00
5283;BME280;15376;48.540;9.268;2023-01-08T03:55:44;96804.34;;;2.73;100.00
5283;BME280;15376;48.540;9.268;2023-01-08T03:58:09;96776.78;;;2.69;100.00
5283;BME280;15376;48.540;9.268;2023-01-08T04:00:35;96803.44;;;2.82;100.00
5283;BME280;15376;48.540;9.268;2023-01-08T04:03:00;96796.19;;;2.76;100.00
5283;BME280;15376;48.540;9.268;2023-01-08T04:05:26;96796.94;;;2.51;100.00
5283;BME280;15376;48.540;9.268;2023-01-08T04:07:54;96792.53;;;2.33;100.00
5283;BME280;15376;48.540;9.268;2023-01-08T04:10:19;96777.22;;;2.11;100.00
5283;BME280;15376;48.540;9.268;2023-01-08T04:12:45;96777.22;;;2.11;100.00
5283;BME280;15376;48.540;9.268;2023-01-08T04:15:10;96799.25;;;2.18;100.00
5283;BME280;15376;48.540;9.268;2023-01-08T04:17:35;96796.63;;;2.18;100.00
5283;BME280;15376;48.540;9.268;2023-01-08T04:20:01;96768.84;;;2.08;100.00
5283;BME280;15376;48.540;9.268;2023-01-08T04:22:27;96782.94;;;2.24;100.00
5283;BME280;15376;48.540;9.268;2023-01-08T04:24:52;96786.91;;;2.28;100.00
5283;BME280;15376;48.540;9.268;2023-01-08T04:27:17;96805.75;;;2.50;100.00
5283;BME280;15376;48.540;9.268;2023-01-08T04:29:43;96808.31;;;2.59;100.00
5283;BME280;15376;48.540;9.268;2023-01-08T04:32:08;96806.38;;;2.61;100.00
5283;BME280;15376;48.540;9.268;2023-01-08T04:34:33;96814.09;;;2.63;100.00
5283;BME280;15376;48.540;9.268;2023-01-08T04:36:59;96807.72;;;2.65;100.00
5283;BME280;15376;48.540;9.268;2023-01-08T04:39:24;96824.78;;;2.87;100.00
5283;BME280;15376;48.540;9.268;2023-01-08T04:41:50;96830.38;;;2.92;100.00
5283;BME280;15376;48.540;9.268;2023-01-08T04:44:15;96816.31;;;2.93;100.00
5283;BME280;15376;48.540;9.268;2023-01-08T04:46:40;96829.84;;;3.07;100.00
5283;BME280;15376;48.540;9.268;2023-01-08T04:49:06;96843.03;;;3.15;100.00
5283;BME280;15376;48.540;9.268;2023-01-08T04:51:31;96845.03;;;3.21;100.00
5283;BME280;15376;48.540;9.268;2023-01-08T04:53:56;96828.78;;;3.17;100.00
5283;BME280;15376;48.540;9.268;2023-01-08T04:56:22;96848.53;;;3.29;100.00
5283;BME280;15376;48.540;9.268;2023-01-08T04:58:47;96830.28;;;3.20;100.00
5283;BME280;15376;48.540;9.268;2023-01-08T05:01:17;96864.50;;;3.36;100.00
5283;BME280;15376;48.540;9.268;2023-01-08T05:03:42;96862.53;;;3.38;100.00
5283;BME280;15376;48.540;9.268;2023-01-08T05:06:08;96845.97;;;3.38;100.00
5283;BME280;15376;48.540;9.268;2023-01-08T05:08:33;96842.38;;;3.39;100.00
5283;BME280;15376;48.540;9.268;2023-01-08T05:10:59;96856.69;;;3.44;100.00
5283;BME280;15376;48.540;9.268;2023-01-08T05:13:25;96859.97;;;3.46;100.00
5283;BME280;15376;48.540;9.268;2023-01-08T05:15:50;96854.72;;;3.46;100.00
5283;BME280;15376;48.540;9.268;2023-01-08T05:18:15;96832.59;;;3.49;100.00
5283;BME280;15376;48.540;9.268;2023-01-08T05:20:41;96827.16;;;3.42;100.00
5283;BME280;15376;48.540;9.268;2023-01-08T05:23:06;96834.03;;;3.43;100.00
5283;BME280;15376;48.540;9.268;2023-01-08T05:25:31;96827.44;;;3.39;100.00
5283;BME280;15376;48.540;9.268;2023-01-08T05:27:57;96832.41;;;3.42;100.00
5283;BME280;15376;48.540;9.268;2023-01-08T05:30:22;96837.41;;;3.53;100.00
5283;BME280;15376;48.540;9.268;2023-01-08T05:32:47;96819.38;;;3.58;100.00
5283;BME280;15376;48.540;9.268;2023-01-08T05:35:12;96808.22;;;3.56;100.00
5283;BME280;15376;48.540;9.268;2023-01-08T05:37:38;96819.41;;;3.66;100.00
5283;BME280;15376;48.540;9.268;2023-01-08T05:40:04;96824.97;;;3.63;100.00
5283;BME280;15376;48.540;9.268;2023-01-08T05:42:29;96824.13;;;3.63;100.00
5283;BME280;15376;48.540;9.268;2023-01-08T05:44:57;96824.97;;;3.63;100.00
5283;BME280;15376;48.540;9.268;2023-01-08T05:47:22;96814.47;;;3.63;100.00
5283;BME280;15376;48.540;9.268;2023-01-08T05:49:48;96819.56;;;3.65;100.00
5283;BME280;15376;48.540;9.268;2023-01-08T05:52:13;96788.03;;;3.57;100.00
5283;BME280;15376;48.540;9.268;2023-01-08T05:54:38;96820.41;;;3.74;100.00
5283;BME280;15376;48.540;9.268;2023-01-08T05:57:04;96837.66;;;3.76;100.00
5283;BME280;15376;48.540;9.268;2023-01-08T05:59:29;96834.16;;;3.67;100.00
5283;BME280;15376;48.540;9.268;2023-01-08T06:01:54;96818.41;;;3.59;100.00
5283;BME280;15376;48.540;9.268;2023-01-08T06:04:20;96809.56;;;3.68;100.00
5283;BME280;15376;48.540;9.268;2023-01-08T06:06:45;96808.78;;;3.76;100.00
5283;BME280;15376;48.540;9.268;2023-01-08T06:09:11;96784.28;;;3.67;100.00
5283;BME280;15376;48.540;9.268;2023-01-08T06:11:37;96803.09;;;3.89;100.00
5283;BME280;15376;48.540;9.268;2023-01-08T06:14:02;96809.53;;;3.94;100.00
5283;BME280;15376;48.540;9.268;2023-01-08T06:16:27;96799.53;;;3.98;100.00
5283;BME280;15376;48.540;9.268;2023-01-08T06:18:53;96815.31;;;4.06;100.00
5283;BME280;15376;48.540;9.268;2023-01-08T06:21:18;96820.44;;;4.16;100.00
5283;BME280;15376;48.540;9.268;2023-01-08T06:23:43;96801.88;;;4.17;100.00
5283;BME280;15376;48.540;9.268;2023-01-08T06:26:09;96805.16;;;4.19;100.00
5283;BME280;15376;48.540;9.268;2023-01-08T06:28:34;96817.31;;;4.20;100.00
5283;BME280;15376;48.540;9.268;2023-01-08T06:31:01;96808.47;;;4.21;100.00
5283;BME280;15376;48.540;9.268;2023-01-08T06:33:27;96816.47;;;4.12;100.00
5283;BME280;15376;48.540;9.268;2023-01-08T06:35:53;96808.88;;;4.00;100.00
5283;BME280;15376;48.540;9.268;2023-01-08T06:38:18;96797.84;;;3.89;100.00
5283;BME280;15376;48.540;9.268;2023-01-08T06:40:45;96825.03;;;4.14;100.00
5283;BME280;15376;48.540;9.268;2023-01-08T06:43:10;96818.97;;;4.21;100.00
5283;BME280;15376;48.540;9.268;2023-01-08T06:45:36;96825.75;;;4.32;100.00
5283;BME280;15376;48.540;9.268;2023-01-08T06:48:05;96794.41;;;4.39;100.00
5283;BME280;15376;48.540;9.268;2023-01-08T06:50:32;96799.84;;;4.78;100.00
5283;BME280;15376;48.540;9.268;2023-01-08T06:52:58;96794.75;;;4.92;100.00
5283;BME280;15376;48.540;9.268;2023-01-08T06:55:24;96788.50;;;4.93;100.00
5283;BME280;15376;48.540;9.268;2023-01-08T06:57:57;96787.69;;;4.93;100.00
5283;BME280;15376;48.540;9.268;2023-01-08T07:00:23;96755.63;;;4.73;100.00
5283;BME280;15376;48.540;9.268;2023-01-08T07:02:51;96791.63;;;4.89;100.00
5283;BME280;15376;48.540;9.268;2023-01-08T07:05:16;96797.41;;;4.76;100.00
5283;BME280;15376;48.540;9.268;2023-01-08T07:07:42;96791.78;;;4.71;100.00
5283;BME280;15376;48.540;9.268;2023-01-08T07:10:07;96797.41;;;4.76;100.00
5283;BME280;15376;48.540;9.268;2023-01-08T07:12:33;96792.78;;;4.86;100.00
5283;BME280;15376;48.540;9.268;2023-01-08T07:14:58;96784.91;;;4.78;100.00
5283;BME280;15376;48.540;9.268;2023-01-08T07:17:23;96776.03;;;4.79;100.00
5283;BME280;15376;48.540;9.268;2023-01-08T07:19:49;96798.03;;;5.02;100.00
5283;BME280;15376;48.540;9.268;2023-01-08T07:22:14;96782.25;;;5.11;100.00
5283;BME280;15376;48.540;9.268;2023-01-08T07:24:40;96800.47;;;5.20;100.00
5283;BME280;15376;48.540;9.268;2023-01-08T07:27:05;96795.41;;;5.19;100.00
5283;BME280;15376;48.540;9.268;2023-01-08T07:29:30;96805.56;;;5.30;100.00
5283;BME280;15376;48.540;9.268;2023-01-08T07:31:55;96803.59;;;5.32;100.00
5283;BME280;15376;48.540;9.268;2023-01-08T07:34:21;96809.34;;;5.44;100.00
5283;BME280;15376;48.540;9.268;2023-01-08T07:36:46;96809.84;;;5.47;100.00
5283;BME280;15376;48.540;9.268;2023-01-08T07:39:12;96807.19;;;5.47;100.00
5283;BME280;15376;48.540;9.268;2023-01-08T07:41:37;96814.75;;;5.50;100.00
5283;BME280;15376;48.540;9.268;2023-01-08T07:44:02;96803.25;;;5.51;100.00
5283;BME280;15376;48.540;9.268;2023-01-08T07:46:28;96787.13;;;5.46;100.00
5283;BME280;15376;48.540;9.268;2023-01-08T07:48:55;96771.81;;;5.42;100.00
5283;BME280;15376;48.540;9.268;2023-01-08T07:51:20;96793.88;;;5.49;100.00
5283;BME280;15376;48.540;9.268;2023-01-08T07:53:45;96778.91;;;5.41;100.00
5283;BME280;15376;48.540;9.268;2023-01-08T07:56:11;96797.97;;;5.51;100.00
5283;BME280;15376;48.540;9.268;2023-01-08T07:58:36;96795.19;;;5.53;100.00
5283;BME280;15376;48.540;9.268;2023-01-08T08:01:03;96793.22;;;5.47;100.00
5283;BME280;15376;48.540;9.268;2023-01-08T08:03:30;96808.34;;;5.45;100.00
5283;BME280;15376;48.540;9.268;2023-01-08T08:05:58;96802.91;;;5.46;100.00
5283;BME280;15376;48.540;9.268;2023-01-08T08:08:24;96810.81;;;5.46;100.00
5283;BME280;15376;48.540;9.268;2023-01-08T08:10:49;96799.97;;;5.41;100.00
5283;BME280;15376;48.540;9.268;2023-01-08T08:13:15;96758.38;;;5.20;100.00
5283;BME280;15376;48.540;9.268;2023-01-08T08:15:40;96790.25;;;5.42;100.00
5283;BME280;15376;48.540;9.268;2023-01-08T08:18:06;96792.22;;;5.48;100.00
5283;BME280;15376;48.540;9.268;2023-01-08T08:20:31;96796.00;;;5.53;100.00
5283;BME280;15376;48.540;9.268;2023-01-08T08:23:01;96779.38;;;5.45;100.00
5283;BME280;15376;48.540;9.268;2023-01-08T08:25:26;96784.47;;;5.54;100.00
5283;BME280;15376;48.540;9.268;2023-01-08T08:27:58;96780.53;;;5.50;100.00
5283;BME280;15376;48.540;9.268;2023-01-08T08:30:25;96783.81;;;5.52;100.00
5283;BME280;15376;48.540;9.268;2023-01-08T08:32:51;96787.59;;;5.58;100.00
5283;BME280;15376;48.540;9.268;2023-01-08T08:35:17;96786.78;;;5.57;100.00
5283;BME280;15376;48.540;9.268;2023-01-08T08:37:42;96785.94;;;5.57;100.00
5283;BME280;15376;48.540;9.268;2023-01-08T08:40:08;96778.22;;;5.55;100.00
5283;BME280;15376;48.540;9.268;2023-01-08T08:42:33;96786.91;;;5.64;100.00
5283;BME280;15376;48.540;9.268;2023-01-08T08:44:59;96784.56;;;5.69;100.00
5283;BME280;15376;48.540;9.268;2023-01-08T08:47:24;96776.84;;;5.67;100.00
5283;BME280;15376;48.540;9.268;2023-01-08T08:49:49;96761.53;;;5.63;100.00
5283;BME280;15376;48.540;9.268;2023-01-08T08:52:15;96770.56;;;5.77;100.00
5283;BME280;15376;48.540;9.268;2023-01-08T08:54:40;96780.09;;;5.86;100.00
5283;BME280;15376;48.540;9.268;2023-01-08T08:57:09;96776.16;;;5.90;100.00
5283;BME280;15376;48.540;9.268;2023-01-08T08:59:34;96766.91;;;5.86;100.00
5283;BME280;15376;48.540;9.268;2023-01-08T09:02:00;96767.09;;;5.92;100.00
5283;BME280;15376;48.540;9.268;2023-01-08T09:04:25;96757.84;;;5.88;100.00
5283;BME280;15376;48.540;9.268;2023-01-08T09:06:53;96769.47;;;6.02;100.00
5283;BME280;15376;48.540;9.268;2023-01-08T09:09:18;96768.47;;;6.11;100.00
5283;BME280;15376;48.540;9.268;2023-01-08T09:11:44;96724.00;;;6.08;100.00
5283;BME280;15376;48.540;9.268;2023-01-08T09:14:09;96766.19;;;6.39;100.00
5283;BME280;15376;48.540;9.268;2023-01-08T09:16:34;96745.91;;;6.40;100.00
5283;BME280;15376;48.540;9.268;2023-01-08T09:19:01;96754.81;;;6.61;100.00
5283;BME280;15376;48.540;9.268;2023-01-08T09:21:26;96750.66;;;6.67;100.00
5283;BME280;15376;48.540;9.268;2023-01-08T09:23:52;96740.03;;;6.75;100.00
5283;BME280;15376;48.540;9.268;2023-01-08T09:26:17;96745.13;;;6.77;100.00
5283;BME280;15376;48.540;9.268;2023-01-08T09:28:42;96749.44;;;6.92;100.00
5283;BME280;15376;48.540;9.268;2023-01-08T09:31:08;96740.69;;;6.92;100.00
5283;BME280;15376;48.540;9.268;2023-01-08T09:33:33;96742.91;;;7.03;100.00
5283;BME280;15376;48.540;9.268;2023-01-08T09:35:58;96744.66;;;7.11;100.00
5283;BME280;15376;48.540;9.268;2023-01-08T09:38:24;96730.47;;;7.12;100.00
5283;BME280;15376;48.540;9.268;2023-01-08T09:40:59;96741.41;;;7.38;100.00
5283;BME280;15376;48.540;9.268;2023-01-08T09:43:28;96743.16;;;7.46;100.00
5283;BME280;15376;48.540;9.268;2023-01-08T09:45:56;96746.59;;;7.46;100.00
5283;BME280;15376;48.540;9.268;2023-01-08T09:48:25;96730.13;;;7.44;100.00
5283;BME280;15376;48.540;9.268;2023-01-08T09:50:52;96722.56;;;7.41;100.00
5283;BME280;15376;48.540;9.268;2023-01-08T09:53:18;96719.00;;;7.34;100.00
5283;BME280;15376;48.540;9.268;2023-01-08T09:55:45;96725.66;;;7.45;100.00
5283;BME280;15376;48.540;9.268;2023-01-08T09:58:36;96729.66;;;7.41;100.00
5283;BME280;15376;48.540;9.268;2023-01-08T10:01:02;96714.63;;;7.41;100.00
5283;BME280;15376;48.540;9.268;2023-01-08T10:03:36;96727.28;;;7.60;100.00
5283;BME280;15376;48.540;9.268;2023-01-08T10:06:13;96702.44;;;7.40;100.00
5283;BME280;15376;48.540;9.268;2023-01-08T10:08:39;96738.13;;;7.65;100.00
5283;BME280;15376;48.540;9.268;2023-01-08T10:11:05;96718.81;;;7.65;100.00
5283;BME280;15376;48.540;9.268;2023-01-08T10:13:34;96726.91;;;7.78;100.00
5283;BME280;15376;48.540;9.268;2023-01-08T10:16:04;96704.41;;;7.67;100.00
5283;BME280;15376;48.540;9.268;2023-01-08T10:18:34;96725.00;;;7.87;100.00
5283;BME280;15376;48.540;9.268;2023-01-08T10:21:00;96725.44;;;7.90;100.00
5283;BME280;15376;48.540;9.268;2023-01-08T10:23:26;96730.00;;;7.96;100.00
5283;BME280;15376;48.540;9.268;2023-01-08T10:26:02;96718.56;;;8.11;100.00
5283;BME280;15376;48.540;9.268;2023-01-08T10:28:32;96721.28;;;8.17;100.00
5283;BME280;15376;48.540;9.268;2023-01-08T10:31:08;96725.56;;;8.18;100.00
5283;BME280;15376;48.540;9.268;2023-01-08T10:36:09;96715.88;;;8.25;100.00
5283;BME280;15376;48.540;9.268;2023-01-08T10:38:42;96695.47;;;8.19;100.00
5283;BME280;15376;48.540;9.268;2023-01-08T10:41:13;96716.13;;;8.30;100.00
5283;BME280;15376;48.540;9.268;2023-01-08T10:43:56;96695.34;;;8.27;100.00
5283;BME280;15376;48.540;9.268;2023-01-08T10:46:26;96691.47;;;8.45;100.00
5283;BME280;15376;48.540;9.268;2023-01-08T10:48:58;96676.59;;;8.44;100.00
5283;BME280;15376;48.540;9.268;2023-01-08T10:51:27;96697.78;;;8.65;100.00
5283;BME280;15376;48.540;9.268;2023-01-08T10:53:54;96702.69;;;8.68;100.00
5283;BME280;15376;48.540;9.268;2023-01-08T10:58:46;96677.94;;;8.82;100.00
5283;BME280;15376;48.540;9.268;2023-01-08T11:01:24;96691.09;;;8.97;100.00
5283;BME280;15376;48.540;9.268;2023-01-08T11:03:52;96678.56;;;9.06;100.00
5283;BME280;15376;48.540;9.268;2023-01-08T11:06:42;96663.47;;;9.06;100.00
5283;BME280;15376;48.540;9.268;2023-01-08T11:09:40;96677.47;;;9.28;100.00
5283;BME280;15376;48.540;9.268;2023-01-08T11:12:27;96661.66;;;9.41;100.00
5283;BME280;15376;48.540;9.268;2023-01-08T11:14:55;96662.13;;;9.51;100.00
5283;BME280;15376;48.540;9.268;2023-01-08T11:17:23;96665.00;;;9.56;100.00
5283;BME280;15376;48.540;9.268;2023-01-08T11:19:49;96651.13;;;9.61;100.00
5283;BME280;15376;48.540;9.268;2023-01-08T11:22:19;96655.03;;;9.58;100.00
5283;BME280;15376;48.540;9.268;2023-01-08T11:24:46;96652.75;;;9.62;100.00
5283;BME280;15376;48.540;9.268;2023-01-08T11:27:29;96647.06;;;9.58;100.00
5283;BME280;15376;48.540;9.268;2023-01-08T11:30:06;96641.53;;;9.60;100.00
5283;BME280;15376;48.540;9.268;2023-01-08T11:32:51;96638.09;;;9.59;100.00
5283;BME280;15376;48.540;9.268;2023-01-08T11:35:20;96630.97;;;9.66;100.00
5283;BME280;15376;48.540;9.268;2023-01-08T11:37:54;96629.94;;;9.67;100.00
5283;BME280;15376;48.540;9.268;2023-01-08T11:40:47;96617.31;;;9.69;100.00
5283;BME280;15376;48.540;9.268;2023-01-08T11:43:20;96615.09;;;9.73;100.00
5283;BME280;15376;48.540;9.268;2023-01-08T12:00:09;96577.03;;;9.94;100.00
5283;BME280;15376;48.540;9.268;2023-01-08T12:02:50;96593.16;;;10.12;100.00
5283;BME280;15376;48.540;9.268;2023-01-08T12:08:02;96565.19;;;10.16;100.00
5283;BME280;15376;48.540;9.268;2023-01-08T12:10:34;96566.88;;;10.30;100.00
5283;BME280;15376;48.540;9.268;2023-01-08T12:13:06;96563.81;;;10.33;100.00
5283;BME280;15376;48.540;9.268;2023-01-08T12:21:10;96563.63;;;10.28;100.00
5283;BME280;15376;48.540;9.268;2023-01-08T12:23:45;96556.69;;;10.34;100.00
5283;BME280;15376;48.540;9.268;2023-01-08T12:26:46;96524.00;;;10.20;100.00
5283;BME280;15376;48.540;9.268;2023-01-08T12:29:21;96561.78;;;10.22;100.00
5283;BME280;15376;48.540;9.268;2023-01-08T12:32:30;96554.63;;;10.29;100.00
5283;BME280;15376;48.540;9.268;2023-01-08T12:35:24;96548.50;;;10.42;100.00
5283;BME280;15376;48.540;9.268;2023-01-08T12:40:48;96543.63;;;10.39;100.00
5283;BME280;15376;48.540;9.268;2023-01-08T12:43:21;96551.16;;;10.35;100.00
5283;BME280;15376;48.540;9.268;2023-01-08T12:45:52;96553.63;;;10.30;100.00
5283;BME280;15376;48.540;9.268;2023-01-08T12:48:20;96546.44;;;10.18;100.00
5283;BME280;15376;48.540;9.268;2023-01-08T12:59:45;96541.91;;;9.85;100.00
5283;BME280;15376;48.540;9.268;2023-01-08T13:02:41;96542.91;;;9.78;100.00
5283;BME280;15376;48.540;9.268;2023-01-08T13:05:32;96539.25;;;9.79;100.00
5283;BME280;15376;48.540;9.268;2023-01-08T13:08:05;96534.94;;;9.71;100.00
5283;BME280;15376;48.540;9.268;2023-01-08T13:12:56;96534.13;;;9.70;100.00
5283;BME280;15376;48.540;9.268;2023-01-08T13:15:24;96532.50;;;9.69;100.00
5283;BME280;15376;48.540;9.268;2023-01-08T13:17:52;96527.59;;;9.66;100.00
5283;BME280;15376;48.540;9.268;2023-01-08T13:20:36;96517.59;;;9.55;100.00
5283;BME280;15376;48.540;9.268;2023-01-08T13:23:03;96523.50;;;9.57;100.00
5283;BME280;15376;48.540;9.268;2023-01-08T13:25:34;96519.00;;;9.51;100.00
5283;BME280;15376;48.540;9.268;2023-01-08T13:28:16;96509.81;;;9.47;100.00
5283;BME280;15376;48.540;9.268;2023-01-08T13:30:42;96502.25;;;9.44;100.00
5283;BME280;15376;48.540;9.268;2023-01-08T13:36:29;96489.88;;;9.58;100.00
5283;BME280;15376;48.540;9.268;2023-01-08T13:39:21;96478.25;;;9.52;100.00
5283;BME280;15376;48.540;9.268;2023-01-08T13:42:24;96493.34;;;9.72;100.00
5283;BME280;15376;48.540;9.268;2023-01-08T13:44:59;96490.06;;;9.69;100.00
5283;BME280;15376;48.540;9.268;2023-01-08T13:47:34;96479.28;;;9.78;100.00
5283;BME280;15376;48.540;9.268;2023-01-08T13:50:03;96484.00;;;9.89;100.00
5283;BME280;15376;48.540;9.268;2023-01-08T13:52:41;96473.38;;;9.89;100.00
5283;BME280;15376;48.540;9.268;2023-01-08T13:55:14;96479.69;;;10.01;100.00
5283;BME280;15376;48.540;9.268;2023-01-08T13:57:44;96459.91;;;10.10;100.00
5283;BME280;15376;48.540;9.268;2023-01-08T14:03:04;96465.41;;;10.42;100.00
5283;BME280;15376;48.540;9.268;2023-01-08T14:05:31;96460.88;;;10.55;100.00
5283;BME280;15376;48.540;9.268;2023-01-08T14:08:01;96453.72;;;10.69;100.00
5283;BME280;15376;48.540;9.268;2023-01-08T14:10:29;96451.66;;;10.71;100.00
5283;BME280;15376;48.540;9.268;2023-01-08T14:13:07;96440.06;;;10.59;100.00
5283;BME280;15376;48.540;9.268;2023-01-08T14:15:33;96416.25;;;10.26;100.00
5283;BME280;15376;48.540;9.268;2023-01-08T14:18:00;96436.06;;;10.23;100.00